sensor_id;sensor_type;location;lat;lon;timestamp;P1;durP1;ratioP1;P2;durP2;ratioP2
4428;SDS011;2227;47.810;8.810;2023-01-29T00:02:05;583.78;;;527.88;;
4428;SDS011;2227;47.810;8.810;2023-01-29T00:04:32;582.28;;;526.13;;
4428;SDS011;2227;47.810;8.810;2023-01-29T00:06:59;584.55;;;528.67;;
4428;SDS011;2227;47.810;8.810;2023-01-29T00:09:26;584.17;;;528.05;;
4428;SDS011;2227;47.810;8.810;2023-01-29T00:11:53;593.77;;;537.30;;
4428;SDS011;2227;47.810;8.810;2023-01-29T00:14:20;587.85;;;531.42;;
4428;SDS011;2227;47.810;8.810;2023-01-29T00:16:46;585.40;;;529.03;;
4428;SDS011;2227;47.810;8.810;2023-01-29T00:19:13;593.93;;;537.23;;
4428;SDS011;2227;47.810;8.810;2023-01-29T00:21:40;592.78;;;536.10;;
4428;SDS011;2227;47.810;8.810;2023-01-29T00:24:07;600.40;;;543.70;;
4428;SDS011;2227;47.810;8.810;2023-01-29T00:26:33;598.67;;;541.47;;
4428;SDS011;2227;47.810;8.810;2023-01-29T00:29:00;594.40;;;537.45;;
4428;SDS011;2227;47.810;8.810;2023-01-29T05:31:24;589.28;;;531.17;;
4428;SDS011;2227;47.810;8.810;2023-01-29T05:33:51;583.65;;;525.45;;
4428;SDS011;2227;47.810;8.810;2023-01-29T05:36:18;589.95;;;531.83;;
4428;SDS011;2227;47.810;8.810;2023-01-29T05:38:45;580.75;;;521.92;;
4428;SDS011;2227;47.810;8.810;2023-01-29T05:41:11;585.50;;;527.23;;
4428;SDS011;2227;47.810;8.810;2023-01-29T05:43:38;574.13;;;514.92;;
4428;SDS011;2227;47.810;8.810;2023-01-29T05:46:04;572.45;;;513.55;;
4428;SDS011;2227;47.810;8.810;2023-01-29T05:48:32;570.30;;;510.48;;
4428;SDS011;2227;47.810;8.810;2023-01-29T05:50:59;564.88;;;505.50;;
4428;SDS011;2227;47.810;8.810;2023-01-29T05:53:27;571.33;;;511.92;;
4428;SDS011;2227;47.810;8.810;2023-01-29T05:55:54;568.58;;;509.80;;
4428;SDS011;2227;47.810;8.810;2023-01-29T05:58:24;568.15;;;509.15;;
4428;SDS011;2227;47.810;8.810;2023-01-29T06:00:50;570.88;;;511.75;;
4428;SDS011;2227;47.810;8.810;2023-01-29T06:03:17;572.78;;;513.58;;
4428;SDS011;2227;47.810;8.810;2023-01-29T06:05:44;579.17;;;519.58;;
4428;SDS011;2227;47.810;8.810;2023-01-29T06:08:10;576.30;;;516.72;;
4428;SDS011;2227;47.810;8.810;2023-01-29T06:10:38;564.70;;;505.00;;
4428;SDS011;2227;47.810;8.810;2023-01-29T06:13:05;566.97;;;507.35;;
4428;SDS011;2227;47.810;8.810;2023-01-29T06:15:32;563.70;;;504.60;;
4428;SDS011;2227;47.810;8.810;2023-01-29T06:17:58;565.58;;;506.38;;
4428;SDS011;2227;47.810;8.810;2023-01-29T06:20:25;564.93;;;505.47;;
4428;SDS011;2227;47.810;8.810;2023-01-29T06:22:52;568.97;;;510.17;;
4428;SDS011;2227;47.810;8.810;2023-01-29T06:25:18;564.92;;;506.02;;
4428;SDS011;2227;47.810;8.810;2023-01-29T06:27:45;563.50;;;505.38;;
4428;SDS011;2227;47.810;8.810;2023-01-29T06:30:16;562.78;;;504.50;;
4428;SDS011;2227;47.810;8.810;2023-01-29T06:32:43;562.28;;;503.38;;
4428;SDS011;2227;47.810;8.810;2023-01-29T06:35:10;560.28;;;501.77;;
4428;SDS011;2227;47.810;8.810;2023-01-29T06:37:36;556.20;;;497.90;;
4428;SDS011;2227;47.810;8.810;2023-01-29T06:40:03;552.95;;;494.67;;
4428;SDS011;2227;47.810;8.810;2023-01-29T06:42:30;552.72;;;494.73;;
4428;SDS011;2227;47.810;8.810;2023-01-29T06:44:57;556.05;;;498.75;;
4428;SDS011;2227;47.810;8.810;2023-01-29T06:47:23;553.92;;;496.23;;
4428;SDS011;2227;47.810;8.810;2023-01-29T06:49:52;560.20;;;503.00;;
4428;SDS011;2227;47.810;8.810;2023-01-29T06:52:18;550.45;;;493.38;;
4428;SDS011;2227;47.810;8.810;2023-01-29T06:54:45;555.30;;;497.52;;
4428;SDS011;2227;47.810;8.810;2023-01-29T06:57:12;544.97;;;487.33;;
4428;SDS011;2227;47.810;8.810;2023-01-29T06:59:39;546.30;;;489.00;;
4428;SDS011;2227;47.810;8.810;2023-01-29T07:02:05;551.30;;;493.90;;
4428;SDS011;2227;47.810;8.810;2023-01-29T07:04:32;551.60;;;494.63;;
4428;SDS011;2227;47.810;8.810;2023-01-29T07:07:00;558.20;;;500.85;;
4428;SDS011;2227;47.810;8.810;2023-01-29T07:09:27;559.03;;;501.43;;
4428;SDS011;2227;47.810;8.810;2023-01-29T07:11:53;559.53;;;502.13;;
4428;SDS011;2227;47.810;8.810;2023-01-29T07:14:20;562.17;;;504.98;;
4428;SDS011;2227;47.810;8.810;2023-01-29T07:16:47;559.43;;;502.23;;
4428;SDS011;2227;47.810;8.810;2023-01-29T07:19:13;563.03;;;505.73;;
4428;SDS011;2227;47.810;8.810;2023-01-29T07:21:40;555.95;;;498.65;;
4428;SDS011;2227;47.810;8.810;2023-01-29T07:24:07;560.63;;;502.90;;
4428;SDS011;2227;47.810;8.810;2023-01-29T07:26:34;560.67;;;503.33;;
4428;SDS011;2227;47.810;8.810;2023-01-29T07:29:01;567.75;;;510.13;;
4428;SDS011;2227;47.810;8.810;2023-01-29T07:31:30;562.95;;;505.23;;
4428;SDS011;2227;47.810;8.810;2023-01-29T07:33:56;575.88;;;517.58;;
4428;SDS011;2227;47.810;8.810;2023-01-29T07:36:23;569.78;;;511.58;;
4428;SDS011;2227;47.810;8.810;2023-01-29T07:38:50;566.47;;;508.53;;
4428;SDS011;2227;47.810;8.810;2023-01-29T07:41:17;565.88;;;508.08;;
4428;SDS011;2227;47.810;8.810;2023-01-29T07:43:44;568.53;;;510.83;;
4428;SDS011;2227;47.810;8.810;2023-01-29T07:46:10;570.78;;;513.35;;
4428;SDS011;2227;47.810;8.810;2023-01-29T07:48:37;568.17;;;510.70;;
4428;SDS011;2227;47.810;8.810;2023-01-29T07:51:04;571.05;;;513.63;;
4428;SDS011;2227;47.810;8.810;2023-01-29T07:53:31;569.27;;;511.40;;
4428;SDS011;2227;47.810;8.810;2023-01-29T07:55:58;575.22;;;517.42;;
4428;SDS011;2227;47.810;8.810;2023-01-29T07:58:24;568.03;;;510.35;;
4428;SDS011;2227;47.810;8.810;2023-01-29T08:00:51;574.93;;;516.83;;
4428;SDS011;2227;47.810;8.810;2023-01-29T08:03:18;566.47;;;508.85;;
4428;SDS011;2227;47.810;8.810;2023-01-29T08:05:46;567.97;;;510.63;;
4428;SDS011;2227;47.810;8.810;2023-01-29T08:08:13;567.70;;;510.13;;
4428;SDS011;2227;47.810;8.810;2023-01-29T08:10:40;565.40;;;507.73;;
4428;SDS011;2227;47.810;8.810;2023-01-29T08:13:07;566.33;;;509.23;;
4428;SDS011;2227;47.810;8.810;2023-01-29T08:15:34;578.13;;;520.92;;
4428;SDS011;2227;47.810;8.810;2023-01-29T08:18:04;581.63;;;524.40;;
4428;SDS011;2227;47.810;8.810;2023-01-29T08:20:31;577.13;;;519.78;;
4428;SDS011;2227;47.810;8.810;2023-01-29T08:23:02;582.00;;;524.90;;
4428;SDS011;2227;47.810;8.810;2023-01-29T08:25:33;579.78;;;521.97;;
4428;SDS011;2227;47.810;8.810;2023-01-29T08:28:01;579.88;;;522.45;;
4428;SDS011;2227;47.810;8.810;2023-01-29T08:30:28;578.63;;;521.42;;
4428;SDS011;2227;47.810;8.810;2023-01-29T08:32:57;583.88;;;526.70;;
4428;SDS011;2227;47.810;8.810;2023-01-29T08:35:24;583.33;;;526.05;;
4428;SDS011;2227;47.810;8.810;2023-01-29T08:37:55;584.08;;;526.35;;
4428;SDS011;2227;47.810;8.810;2023-01-29T08:40:24;585.17;;;527.90;;
4428;SDS011;2227;47.810;8.810;2023-01-29T08:42:52;592.95;;;535.55;;
4428;SDS011;2227;47.810;8.810;2023-01-29T08:45:25;586.83;;;529.50;;
4428;SDS011;2227;47.810;8.810;2023-01-29T08:47:52;592.65;;;534.72;;
4428;SDS011;2227;47.810;8.810;2023-01-29T08:50:19;585.30;;;527.60;;
4428;SDS011;2227;47.810;8.810;2023-01-29T08:52:45;584.30;;;526.30;;
4428;SDS011;2227;47.810;8.810;2023-01-29T08:55:12;593.35;;;535.35;;
4428;SDS011;2227;47.810;8.810;2023-01-29T08:57:39;593.78;;;534.90;;
4428;SDS011;2227;47.810;8.810;2023-01-29T09:00:06;588.33;;;530.03;;
4428;SDS011;2227;47.810;8.810;2023-01-29T09:02:35;584.08;;;525.97;;
4428;SDS011;2227;47.810;8.810;2023-01-29T09:05:02;586.58;;;528.47;;
4428;SDS011;2227;47.810;8.810;2023-01-29T09:07:29;588.67;;;531.05;;
4428;SDS011;2227;47.810;8.810;2023-01-29T09:09:56;596.72;;;538.83;;
4428;SDS011;2227;47.810;8.810;2023-01-29T09:12:23;593.58;;;535.85;;
4428;SDS011;2227;47.810;8.810;2023-01-29T09:14:49;591.78;;;533.90;;
4428;SDS011;2227;47.810;8.810;2023-01-29T09:17:16;598.63;;;540.35;;
4428;SDS011;2227;47.810;8.810;2023-01-29T09:19:43;595.73;;;537.83;;
4428;SDS011;2227;47.810;8.810;2023-01-29T09:22:10;604.10;;;546.05;;
4428;SDS011;2227;47.810;8.810;2023-01-29T09:24:37;606.33;;;548.27;;
4428;SDS011;2227;47.810;8.810;2023-01-29T09:27:04;606.28;;;548.47;;
4428;SDS011;2227;47.810;8.810;2023-01-29T09:29:31;607.45;;;549.47;;
4428;SDS011;2227;47.810;8.810;2023-01-29T09:32:00;591.55;;;533.92;;
4428;SDS011;2227;47.810;8.810;2023-01-29T09:34:28;605.50;;;547.63;;
4428;SDS011;2227;47.810;8.810;2023-01-29T09:36:55;607.20;;;549.15;;
4428;SDS011;2227;47.810;8.810;2023-01-29T09:39:22;602.53;;;544.80;;
4428;SDS011;2227;47.810;8.810;2023-01-29T09:42:00;607.43;;;549.57;;
4428;SDS011;2227;47.810;8.810;2023-01-29T09:47:28;605.20;;;546.90;;
4428;SDS011;2227;47.810;8.810;2023-01-29T09:49:58;592.53;;;534.78;;
4428;SDS011;2227;47.810;8.810;2023-01-29T09:55:10;589.38;;;531.13;;
4428;SDS011;2227;47.810;8.810;2023-01-29T09:57:45;588.28;;;529.92;;
4428;SDS011;2227;47.810;8.810;2023-01-29T10:00:19;598.25;;;539.63;;
4428;SDS011;2227;47.810;8.810;2023-01-29T10:05:55;600.13;;;541.40;;
4428;SDS011;2227;47.810;8.810;2023-01-29T10:11:31;596.20;;;537.30;;
4428;SDS011;2227;47.810;8.810;2023-01-29T10:14:21;607.60;;;548.17;;
4428;SDS011;2227;47.810;8.810;2023-01-29T10:16:54;605.22;;;545.63;;
4428;SDS011;2227;47.810;8.810;2023-01-29T10:19:56;607.08;;;547.65;;
4428;SDS011;2227;47.810;8.810;2023-01-29T10:22:49;604.55;;;545.30;;
4428;SDS011;2227;47.810;8.810;2023-01-29T10:25:32;606.45;;;546.92;;
4428;SDS011;2227;47.810;8.810;2023-01-29T10:28:06;602.58;;;543.78;;
4428;SDS011;2227;47.810;8.810;2023-01-29T10:30:47;607.00;;;548.53;;
4428;SDS011;2227;47.810;8.810;2023-01-29T10:33:27;607.53;;;549.03;;
4428;SDS011;2227;47.810;8.810;2023-01-29T10:36:22;613.65;;;554.97;;
4428;SDS011;2227;47.810;8.810;2023-01-29T10:38:57;612.22;;;553.03;;
4428;SDS011;2227;47.810;8.810;2023-01-29T10:52:55;610.75;;;552.10;;
4428;SDS011;2227;47.810;8.810;2023-01-29T10:55:51;612.08;;;553.38;;
4428;SDS011;2227;47.810;8.810;2023-01-29T10:58:49;609.83;;;551.00;;
4428;SDS011;2227;47.810;8.810;2023-01-29T11:01:19;609.53;;;550.72;;
4428;SDS011;2227;47.810;8.810;2023-01-29T11:03:51;610.50;;;551.75;;
4428;SDS011;2227;47.810;8.810;2023-01-29T11:09:23;613.88;;;554.80;;
4428;SDS011;2227;47.810;8.810;2023-01-29T11:14:51;614.90;;;556.10;;
4428;SDS011;2227;47.810;8.810;2023-01-29T11:17:22;612.17;;;553.38;;
4428;SDS011;2227;47.810;8.810;2023-01-29T11:19:51;615.63;;;556.63;;
4428;SDS011;2227;47.810;8.810;2023-01-29T11:22:26;617.25;;;557.95;;
4428;SDS011;2227;47.810;8.810;2023-01-29T11:27:58;615.55;;;556.15;;
4428;SDS011;2227;47.810;8.810;2023-01-29T11:30:30;612.70;;;553.08;;
4428;SDS011;2227;47.810;8.810;2023-01-29T11:35:43;614.65;;;554.75;;
4428;SDS011;2227;47.810;8.810;2023-01-29T11:38:26;607.10;;;547.30;;
4428;SDS011;2227;47.810;8.810;2023-01-29T11:41:07;615.00;;;555.40;;
4428;SDS011;2227;47.810;8.810;2023-01-29T11:43:43;609.10;;;549.33;;
4428;SDS011;2227;47.810;8.810;2023-01-29T11:46:11;611.45;;;551.83;;
4428;SDS011;2227;47.810;8.810;2023-01-29T11:48:41;613.03;;;553.75;;
4428;SDS011;2227;47.810;8.810;2023-01-29T11:51:27;611.20;;;552.00;;
4428;SDS011;2227;47.810;8.810;2023-01-29T11:53:55;608.15;;;548.72;;
4428;SDS011;2227;47.810;8.810;2023-01-29T11:56:27;607.85;;;548.85;;
4428;SDS011;2227;47.810;8.810;2023-01-29T11:58:59;606.17;;;547.38;;
4428;SDS011;2227;47.810;8.810;2023-01-29T12:01:36;608.55;;;549.90;;
4428;SDS011;2227;47.810;8.810;2023-01-29T12:04:19;613.47;;;554.58;;
4428;SDS011;2227;47.810;8.810;2023-01-29T12:06:49;608.67;;;549.95;;
4428;SDS011;2227;47.810;8.810;2023-01-29T12:09:18;612.42;;;553.33;;
4428;SDS011;2227;47.810;8.810;2023-01-29T12:11:48;611.65;;;552.67;;
4428;SDS011;2227;47.810;8.810;2023-01-29T12:14:22;618.10;;;559.00;;
4428;SDS011;2227;47.810;8.810;2023-01-29T12:16:55;618.35;;;559.35;;
4428;SDS011;2227;47.810;8.810;2023-01-29T12:22:16;612.03;;;553.17;;
4428;SDS011;2227;47.810;8.810;2023-01-29T12:27:45;610.97;;;552.28;;
4428;SDS011;2227;47.810;8.810;2023-01-29T12:33:12;624.67;;;565.88;;
4428;SDS011;2227;47.810;8.810;2023-01-29T12:35:50;614.20;;;556.28;;
4428;SDS011;2227;47.810;8.810;2023-01-29T12:38:23;617.00;;;558.90;;
4428;SDS011;2227;47.810;8.810;2023-01-29T12:41:00;615.33;;;557.10;;
4428;SDS011;2227;47.810;8.810;2023-01-29T12:46:16;626.58;;;567.85;;
4428;SDS011;2227;47.810;8.810;2023-01-29T12:48:49;622.67;;;564.45;;
4428;SDS011;2227;47.810;8.810;2023-01-29T12:51:19;622.42;;;563.92;;
4428;SDS011;2227;47.810;8.810;2023-01-29T12:53:58;621.28;;;562.67;;
4428;SDS011;2227;47.810;8.810;2023-01-29T12:56:38;618.55;;;559.45;;
4428;SDS011;2227;47.810;8.810;2023-01-29T12:59:28;630.60;;;569.90;;
4428;SDS011;2227;47.810;8.810;2023-01-29T13:02:05;631.97;;;571.83;;
4428;SDS011;2227;47.810;8.810;2023-01-29T13:05:00;645.47;;;585.97;;
4428;SDS011;2227;47.810;8.810;2023-01-29T13:07:50;649.70;;;590.17;;
4428;SDS011;2227;47.810;8.810;2023-01-29T13:10:48;631.40;;;572.17;;
4428;SDS011;2227;47.810;8.810;2023-01-29T13:13:30;634.08;;;574.42;;
4428;SDS011;2227;47.810;8.810;2023-01-29T13:16:20;619.53;;;559.90;;
4428;SDS011;2227;47.810;8.810;2023-01-29T13:18:57;612.65;;;554.10;;
4428;SDS011;2227;47.810;8.810;2023-01-29T13:21:39;610.92;;;551.72;;
4428;SDS011;2227;47.810;8.810;2023-01-29T13:26:40;595.22;;;536.28;;
4428;SDS011;2227;47.810;8.810;2023-01-29T13:29:19;599.35;;;540.05;;
4428;SDS011;2227;47.810;8.810;2023-01-29T13:31:51;606.22;;;547.17;;
4428;SDS011;2227;47.810;8.810;2023-01-29T13:34:23;592.10;;;533.25;;
4428;SDS011;2227;47.810;8.810;2023-01-29T13:36:52;602.58;;;543.47;;
4428;SDS011;2227;47.810;8.810;2023-01-29T13:39:23;600.90;;;541.83;;
4428;SDS011;2227;47.810;8.810;2023-01-29T13:42:14;598.28;;;539.28;;
4428;SDS011;2227;47.810;8.810;2023-01-29T13:44:51;603.47;;;544.67;;
4428;SDS011;2227;47.810;8.810;2023-01-29T13:47:25;601.47;;;542.38;;
4428;SDS011;2227;47.810;8.810;2023-01-29T13:52:45;604.80;;;545.90;;
4428;SDS011;2227;47.810;8.810;2023-01-29T14:07:55;617.60;;;558.10;;
4428;SDS011;2227;47.810;8.810;2023-01-29T14:10:27;615.97;;;556.13;;
4428;SDS011;2227;47.810;8.810;2023-01-29T14:15:36;596.55;;;536.28;;
4428;SDS011;2227;47.810;8.810;2023-01-29T14:20:37;600.58;;;540.58;;
4428;SDS011;2227;47.810;8.810;2023-01-29T14:25:53;597.78;;;534.50;;
4428;SDS011;2227;47.810;8.810;2023-01-29T14:28:21;578.03;;;517.83;;
4428;SDS011;2227;47.810;8.810;2023-01-29T14:30:51;578.78;;;519.05;;
4428;SDS011;2227;47.810;8.810;2023-01-29T14:33:22;568.58;;;508.70;;
4428;SDS011;2227;47.810;8.810;2023-01-29T14:35:57;575.92;;;515.50;;
4428;SDS011;2227;47.810;8.810;2023-01-29T14:38:25;570.10;;;509.73;;
4428;SDS011;2227;47.810;8.810;2023-01-29T14:41:04;553.93;;;493.90;;
4428;SDS011;2227;47.810;8.810;2023-01-29T14:43:40;566.63;;;504.92;;
4428;SDS011;2227;47.810;8.810;2023-01-29T14:49:10;566.88;;;506.50;;
4428;SDS011;2227;47.810;8.810;2023-01-29T14:51:39;565.58;;;505.13;;
4428;SDS011;2227;47.810;8.810;2023-01-29T14:54:16;574.83;;;514.70;;
4428;SDS011;2227;47.810;8.810;2023-01-29T14:56:54;584.85;;;524.25;;
4428;SDS011;2227;47.810;8.810;2023-01-29T14:59:28;578.67;;;518.25;;
4428;SDS011;2227;47.810;8.810;2023-01-29T15:01:56;582.30;;;522.10;;
4428;SDS011;2227;47.810;8.810;2023-01-29T15:04:27;584.78;;;524.90;;
4428;SDS011;2227;47.810;8.810;2023-01-29T15:07:01;596.65;;;536.40;;
4428;SDS011;2227;47.810;8.810;2023-01-29T15:09:43;599.50;;;539.00;;
4428;SDS011;2227;47.810;8.810;2023-01-29T15:18:06;594.45;;;533.55;;
4428;SDS011;2227;47.810;8.810;2023-01-29T15:20:40;598.05;;;537.53;;
4428;SDS011;2227;47.810;8.810;2023-01-29T15:26:12;594.83;;;534.97;;
4428;SDS011;2227;47.810;8.810;2023-01-29T15:28:54;594.28;;;534.05;;
4428;SDS011;2227;47.810;8.810;2023-01-29T15:31:29;591.42;;;530.88;;
4428;SDS011;2227;47.810;8.810;2023-01-29T15:33:57;588.85;;;528.75;;
4428;SDS011;2227;47.810;8.810;2023-01-29T15:36:30;588.80;;;529.00;;
4428;SDS011;2227;47.810;8.810;2023-01-29T15:41:44;589.33;;;530.03;;
4428;SDS011;2227;47.810;8.810;2023-01-29T15:44:15;590.00;;;530.67;;
4428;SDS011;2227;47.810;8.810;2023-01-29T15:46:49;586.85;;;527.17;;
4428;SDS011;2227;47.810;8.810;2023-01-29T15:49:29;592.58;;;533.00;;
4428;SDS011;2227;47.810;8.810;2023-01-29T15:51:59;590.83;;;531.40;;
4428;SDS011;2227;47.810;8.810;2023-01-29T15:54:30;587.53;;;528.03;;
4428;SDS011;2227;47.810;8.810;2023-01-29T15:56:58;588.42;;;528.92;;
4428;SDS011;2227;47.810;8.810;2023-01-29T15:59:37;580.90;;;521.28;;
4428;SDS011;2227;47.810;8.810;2023-01-29T16:05:00;576.70;;;516.40;;
4428;SDS011;2227;47.810;8.810;2023-01-29T16:07:27;564.93;;;504.23;;
4428;SDS011;2227;47.810;8.810;2023-01-29T16:09:55;563.45;;;502.83;;
4428;SDS011;2227;47.810;8.810;2023-01-29T16:12:23;573.10;;;512.53;;
4428;SDS011;2227;47.810;8.810;2023-01-29T16:14:50;566.30;;;506.20;;
4428;SDS011;2227;47.810;8.810;2023-01-29T16:19:58;571.65;;;511.45;;
4428;SDS011;2227;47.810;8.810;2023-01-29T16:22:33;576.60;;;516.53;;
4428;SDS011;2227;47.810;8.810;2023-01-29T16:25:10;584.67;;;524.40;;
4428;SDS011;2227;47.810;8.810;2023-01-29T16:27:39;576.30;;;516.20;;
4428;SDS011;2227;47.810;8.810;2023-01-29T16:30:09;582.47;;;522.78;;
4428;SDS011;2227;47.810;8.810;2023-01-29T16:32:40;575.55;;;515.45;;
4428;SDS011;2227;47.810;8.810;2023-01-29T16:35:11;578.20;;;518.47;;
4428;SDS011;2227;47.810;8.810;2023-01-29T16:37:42;580.67;;;520.60;;
4428;SDS011;2227;47.810;8.810;2023-01-29T16:40:15;577.38;;;517.35;;
4428;SDS011;2227;47.810;8.810;2023-01-29T16:42:57;580.10;;;519.60;;
4428;SDS011;2227;47.810;8.810;2023-01-29T16:48:30;570.42;;;510.02;;
4428;SDS011;2227;47.810;8.810;2023-01-29T16:51:10;573.10;;;512.70;;
4428;SDS011;2227;47.810;8.810;2023-01-29T16:53:39;571.05;;;511.13;;
4428;SDS011;2227;47.810;8.810;2023-01-29T16:56:25;568.88;;;508.38;;
4428;SDS011;2227;47.810;8.810;2023-01-29T16:58:55;574.50;;;514.10;;
4428;SDS011;2227;47.810;8.810;2023-01-29T17:01:23;577.90;;;517.50;;
4428;SDS011;2227;47.810;8.810;2023-01-29T17:03:54;577.70;;;517.03;;
4428;SDS011;2227;47.810;8.810;2023-01-29T17:06:30;570.75;;;510.60;;
4428;SDS011;2227;47.810;8.810;2023-01-29T17:08:58;572.00;;;511.83;;
4428;SDS011;2227;47.810;8.810;2023-01-29T17:11:32;567.30;;;507.58;;
4428;SDS011;2227;47.810;8.810;2023-01-29T17:14:03;572.67;;;512.77;;
4428;SDS011;2227;47.810;8.810;2023-01-29T17:16:33;566.47;;;506.48;;
4428;SDS011;2227;47.810;8.810;2023-01-29T17:19:10;571.38;;;510.88;;
4428;SDS011;2227;47.810;8.810;2023-01-29T17:21:43;563.70;;;502.85;;
4428;SDS011;2227;47.810;8.810;2023-01-29T17:24:09;562.15;;;501.55;;
4428;SDS011;2227;47.810;8.810;2023-01-29T17:26:36;572.55;;;511.05;;
4428;SDS011;2227;47.810;8.810;2023-01-29T17:29:04;565.30;;;504.20;;
4428;SDS011;2227;47.810;8.810;2023-01-29T17:31:33;568.53;;;506.73;;
4428;SDS011;2227;47.810;8.810;2023-01-29T17:34:00;588.08;;;523.72;;
4428;SDS011;2227;47.810;8.810;2023-01-29T17:36:26;567.20;;;505.40;;
4428;SDS011;2227;47.810;8.810;2023-01-29T17:38:53;569.72;;;508.13;;
4428;SDS011;2227;47.810;8.810;2023-01-29T17:41:21;557.83;;;496.58;;
4428;SDS011;2227;47.810;8.810;2023-01-29T17:43:58;560.22;;;492.83;;
4428;SDS011;2227;47.810;8.810;2023-01-29T17:46:24;555.17;;;481.35;;
4428;SDS011;2227;47.810;8.810;2023-01-29T17:48:52;555.58;;;482.40;;
4428;SDS011;2227;47.810;8.810;2023-01-29T17:51:19;555.92;;;480.02;;
4428;SDS011;2227;47.810;8.810;2023-01-29T17:53:46;554.30;;;476.88;;
4428;SDS011;2227;47.810;8.810;2023-01-29T17:56:17;547.97;;;470.77;;
4428;SDS011;2227;47.810;8.810;2023-01-29T17:58:54;551.95;;;477.25;;
4428;SDS011;2227;47.810;8.810;2023-01-29T18:01:21;545.10;;;475.58;;
4428;SDS011;2227;47.810;8.810;2023-01-29T18:03:48;550.63;;;490.17;;
4428;SDS011;2227;47.810;8.810;2023-01-29T18:06:19;544.35;;;477.90;;
4428;SDS011;2227;47.810;8.810;2023-01-29T18:08:52;542.92;;;482.73;;
4428;SDS011;2227;47.810;8.810;2023-01-29T18:11:18;552.35;;;492.45;;
4428;SDS011;2227;47.810;8.810;2023-01-29T18:13:45;550.50;;;491.08;;
4428;SDS011;2227;47.810;8.810;2023-01-29T18:16:12;549.45;;;490.52;;
4428;SDS011;2227;47.810;8.810;2023-01-29T18:18:38;538.38;;;479.95;;
4428;SDS011;2227;47.810;8.810;2023-01-29T18:21:05;536.47;;;477.98;;
4428;SDS011;2227;47.810;8.810;2023-01-29T18:23:33;549.53;;;491.05;;
4428;SDS011;2227;47.810;8.810;2023-01-29T18:25:59;546.13;;;487.52;;
4428;SDS011;2227;47.810;8.810;2023-01-29T18:28:26;562.15;;;502.98;;
4428;SDS011;2227;47.810;8.810;2023-01-29T18:30:52;561.78;;;502.58;;
4428;SDS011;2227;47.810;8.810;2023-01-29T18:33:19;561.27;;;502.30;;
4428;SDS011;2227;47.810;8.810;2023-01-29T18:35:46;558.67;;;499.20;;
4428;SDS011;2227;47.810;8.810;2023-01-29T18:38:13;556.67;;;497.33;;
4428;SDS011;2227;47.810;8.810;2023-01-29T18:40:40;570.70;;;511.05;;
4428;SDS011;2227;47.810;8.810;2023-01-29T18:43:06;566.88;;;506.75;;
4428;SDS011;2227;47.810;8.810;2023-01-29T18:45:33;564.40;;;504.67;;
4428;SDS011;2227;47.810;8.810;2023-01-29T18:48:00;567.60;;;507.10;;
4428;SDS011;2227;47.810;8.810;2023-01-29T18:50:27;569.28;;;509.05;;
4428;SDS011;2227;47.810;8.810;2023-01-29T18:52:54;567.22;;;506.98;;
4428;SDS011;2227;47.810;8.810;2023-01-29T18:55:21;563.70;;;503.80;;
4428;SDS011;2227;47.810;8.810;2023-01-29T18:57:55;565.45;;;504.92;;
4428;SDS011;2227;47.810;8.810;2023-01-29T19:00:41;563.70;;;503.42;;
4428;SDS011;2227;47.810;8.810;2023-01-29T19:03:09;557.80;;;497.87;;
4428;SDS011;2227;47.810;8.810;2023-01-29T19:05:36;564.83;;;504.73;;
4428;SDS011;2227;47.810;8.810;2023-01-29T19:08:03;565.90;;;505.83;;
4428;SDS011;2227;47.810;8.810;2023-01-29T19:10:31;562.85;;;503.20;;
4428;SDS011;2227;47.810;8.810;2023-01-29T19:12:58;562.92;;;504.42;;
4428;SDS011;2227;47.810;8.810;2023-01-29T19:15:25;574.15;;;515.30;;
4428;SDS011;2227;47.810;8.810;2023-01-29T19:17:52;575.00;;;515.33;;
4428;SDS011;2227;47.810;8.810;2023-01-29T19:20:19;577.47;;;517.72;;
4428;SDS011;2227;47.810;8.810;2023-01-29T19:22:45;569.13;;;510.02;;
4428;SDS011;2227;47.810;8.810;2023-01-29T19:25:12;568.35;;;508.95;;
4428;SDS011;2227;47.810;8.810;2023-01-29T19:27:39;573.67;;;515.00;;
4428;SDS011;2227;47.810;8.810;2023-01-29T19:30:06;580.25;;;521.38;;
4428;SDS011;2227;47.810;8.810;2023-01-29T19:32:33;579.90;;;520.50;;
4428;SDS011;2227;47.810;8.810;2023-01-29T19:35:00;570.97;;;510.98;;
4428;SDS011;2227;47.810;8.810;2023-01-29T19:37:27;561.65;;;502.40;;
4428;SDS011;2227;47.810;8.810;2023-01-29T19:39:55;563.20;;;504.02;;
4428;SDS011;2227;47.810;8.810;2023-01-29T19:42:22;565.03;;;506.30;;
4428;SDS011;2227;47.810;8.810;2023-01-29T19:44:49;565.47;;;507.35;;
4428;SDS011;2227;47.810;8.810;2023-01-29T19:47:17;566.30;;;508.33;;
4428;SDS011;2227;47.810;8.810;2023-01-29T19:49:44;567.47;;;508.83;;
4428;SDS011;2227;47.810;8.810;2023-01-29T19:52:10;572.90;;;513.60;;
4428;SDS011;2227;47.810;8.810;2023-01-29T19:55:14;565.42;;;507.10;;
4428;SDS011;2227;47.810;8.810;2023-01-29T19:57:41;564.78;;;505.65;;
4428;SDS011;2227;47.810;8.810;2023-01-29T20:00:08;560.90;;;502.20;;
4428;SDS011;2227;47.810;8.810;2023-01-29T20:02:37;563.10;;;504.33;;
4428;SDS011;2227;47.810;8.810;2023-01-29T20:05:04;564.10;;;505.50;;
4428;SDS011;2227;47.810;8.810;2023-01-29T20:07:32;561.83;;;503.63;;
4428;SDS011;2227;47.810;8.810;2023-01-29T20:10:00;562.03;;;503.38;;
4428;SDS011;2227;47.810;8.810;2023-01-29T20:12:27;558.45;;;499.38;;
4428;SDS011;2227;47.810;8.810;2023-01-29T20:14:54;557.50;;;498.77;;
4428;SDS011;2227;47.810;8.810;2023-01-29T20:17:21;561.25;;;502.35;;
4428;SDS011;2227;47.810;8.810;2023-01-29T20:19:48;551.13;;;492.13;;
4428;SDS011;2227;47.810;8.810;2023-01-29T20:22:15;540.13;;;481.73;;
4428;SDS011;2227;47.810;8.810;2023-01-29T20:24:41;525.03;;;466.88;;
4428;SDS011;2227;47.810;8.810;2023-01-29T20:27:08;530.63;;;472.30;;
4428;SDS011;2227;47.810;8.810;2023-01-29T20:29:36;532.17;;;474.08;;
4428;SDS011;2227;47.810;8.810;2023-01-29T20:32:04;528.13;;;470.73;;
4428;SDS011;2227;47.810;8.810;2023-01-29T20:34:33;528.40;;;470.00;;
4428;SDS011;2227;47.810;8.810;2023-01-29T20:37:00;533.13;;;474.73;;
4428;SDS011;2227;47.810;8.810;2023-01-29T20:39:27;529.83;;;471.23;;
4428;SDS011;2227;47.810;8.810;2023-01-29T20:41:53;532.67;;;474.17;;
4428;SDS011;2227;47.810;8.810;2023-01-29T20:44:22;526.50;;;466.98;;
4428;SDS011;2227;47.810;8.810;2023-01-29T20:46:49;529.35;;;465.23;;
4428;SDS011;2227;47.810;8.810;2023-01-29T20:49:16;529.15;;;462.38;;
4428;SDS011;2227;47.810;8.810;2023-01-29T20:51:44;529.08;;;457.65;;
4428;SDS011;2227;47.810;8.810;2023-01-29T20:54:11;533.53;;;456.55;;
4428;SDS011;2227;47.810;8.810;2023-01-29T20:56:37;533.53;;;450.40;;
4428;SDS011;2227;47.810;8.810;2023-01-29T20:59:12;532.70;;;449.58;;
4428;SDS011;2227;47.810;8.810;2023-01-29T21:01:39;532.28;;;446.00;;
4428;SDS011;2227;47.810;8.810;2023-01-29T21:04:06;530.92;;;438.05;;
4428;SDS011;2227;47.810;8.810;2023-01-29T21:06:32;531.70;;;439.25;;
4428;SDS011;2227;47.810;8.810;2023-01-29T21:08:59;528.13;;;434.48;;
4428;SDS011;2227;47.810;8.810;2023-01-29T21:11:26;532.17;;;442.17;;
4428;SDS011;2227;47.810;8.810;2023-01-29T21:13:53;536.08;;;436.95;;
4428;SDS011;2227;47.810;8.810;2023-01-29T21:16:23;535.78;;;447.52;;